Time;durP1;ratioP1;P1;durP2;ratioP2;P2;SDS_P1;SDS_P2;PMS_P1;PMS_P2;Temp;Humidity;BMP_temperature;BMP_pressure;BME280_temperature;BME280_humidity;BME280_pressure;Samples;Min_cycle;Max_cycle;Signal;HPM_P1;HPM_P2
2023/03/09 00:01:17;;;;;;;32.45;29.45;;;;;;;;;;5077359;28;20277;-80
2023/03/09 00:03:45;;;;;;;28.60;25.73;;;;;;;;;;5077577;28;20233;-79
2023/03/09 00:06:12;;;;;;;30.67;27.88;;;;;;;;;;5076693;28;20226;-79
2023/03/09 00:08:39;;;;;;;33.70;30.30;;;;;;;;;;5077234;28;20222;-79
2023/03/09 00:11:07;;;;;;;33.22;29.92;;;;;;;;;;5077426;28;20200;-79
2023/03/09 00:13:34;;;;;;;28.70;26.08;;;;;;;;;;5076717;28;20253;-80
2023/03/09 00:16:08;;;;;;;32.10;29.00;;;;;;;;;;5076313;28;20312;-79
2023/03/09 00:18:35;;;;;;;33.22;29.92;;;;;;;;;;5075794;28;20251;-79
2023/03/09 00:21:03;;;;;;;30.20;27.60;;;;;;;;;;5076022;28;20223;-79
2023/03/09 00:23:31;;;;;;;33.03;29.83;;;;;;;;;;5075255;28;20199;-79
2023/03/09 00:26:02;;;;;;;31.55;28.45;;;;;;;;;;5075436;28;20300;-79
2023/03/09 00:28:29;;;;;;;32.65;29.55;;;;;;;;;;5075697;28;20188;-79
2023/03/09 00:31:00;;;;;;;32.63;29.67;;;;;;;;;;5075511;28;20203;-79
2023/03/09 00:33:27;;;;;;;32.10;29.00;;;;;;;;;;5075238;28;20217;-79
2023/03/09 00:35:54;;;;;;;33.45;30.23;;;;;;;;;;5076380;28;20250;-80
2023/03/09 00:38:22;;;;;;;31.58;28.50;;;;;;;;;;5076914;28;20589;-79
2023/03/09 00:40:49;;;;;;;28.42;25.77;;;;;;;;;;5076597;28;20227;-80
2023/03/09 00:43:16;;;;;;;31.05;28.05;;;;;;;;;;5075836;28;20199;-80
2023/03/09 00:45:43;;;;;;;31.98;29.05;;;;;;;;;;5076654;28;20626;-79
2023/03/09 00:48:10;;;;;;;32.13;29.17;;;;;;;;;;5075328;28;20207;-80
2023/03/09 00:50:37;;;;;;;29.45;26.73;;;;;;;;;;5077593;28;20195;-80
2023/03/09 00:53:04;;;;;;;30.50;27.70;;;;;;;;;;5077320;28;20256;-80
2023/03/09 00:55:32;;;;;;;29.73;27.15;;;;;;;;;;5077132;28;20628;-80
2023/03/09 00:57:59;;;;;;;28.52;26.00;;;;;;;;;;5092521;28;20213;-80
2023/03/09 01:00:26;;;;;;;29.95;27.30;;;;;;;;;;5092136;28;20272;-79
2023/03/09 01:02:54;;;;;;;26.38;24.20;;;;;;;;;;5086090;28;20605;-80
2023/03/09 01:05:21;;;;;;;29.77;27.17;;;;;;;;;;5077573;28;20709;-81
2023/03/09 01:07:48;;;;;;;31.27;28.55;;;;;;;;;;5076774;28;20644;-80
2023/03/09 01:10:15;;;;;;;32.15;29.13;;;;;;;;;;5076953;28;20321;-80
2023/03/09 01:12:44;;;;;;;28.80;26.30;;;;;;;;;;5077121;28;20203;-79
2023/03/09 01:15:12;;;;;;;27.20;25.00;;;;;;;;;;5076777;28;20196;-79
2023/03/09 01:17:39;;;;;;;26.88;24.58;;;;;;;;;;5076058;28;20222;-79
2023/03/09 01:20:07;;;;;;;30.63;27.80;;;;;;;;;;5076273;28;20245;-79
2023/03/09 01:22:33;;;;;;;29.52;27.20;;;;;;;;;;5075980;28;20260;-79
2023/03/09 01:25:00;;;;;;;28.27;25.88;;;;;;;;;;5077068;28;20215;-80
2023/03/09 01:27:27;;;;;;;29.67;26.95;;;;;;;;;;5075760;28;20207;-79
2023/03/09 01:29:56;;;;;;;29.70;27.15;;;;;;;;;;5076188;28;20663;-79
2023/03/09 01:32:25;;;;;;;29.55;26.88;;;;;;;;;;5075707;28;20561;-79
2023/03/09 01:34:52;;;;;;;26.90;24.85;;;;;;;;;;5076305;28;20204;-80
2023/03/09 01:37:19;;;;;;;28.98;26.38;;;;;;;;;;5076022;28;20227;-79
2023/03/09 01:39:46;;;;;;;31.45;28.58;;;;;;;;;;5076667;28;20258;-79
2023/03/09 01:42:13;;;;;;;27.98;25.55;;;;;;;;;;5075550;28;20585;-80
2023/03/09 01:44:40;;;;;;;29.20;26.58;;;;;;;;;;5076104;28;20203;-79
2023/03/09 01:47:08;;;;;;;30.00;27.40;;;;;;;;;;5078707;28;20219;-80
2023/03/09 01:49:38;;;;;;;28.83;26.42;;;;;;;;;;5080911;28;20234;-79
2023/03/09 01:52:08;;;;;;;26.60;24.33;;;;;;;;;;5080099;28;20264;-80
2023/03/09 01:54:38;;;;;;;25.92;23.92;;;;;;;;;;5080276;28;20192;-80
2023/03/09 01:57:08;;;;;;;23.42;21.80;;;;;;;;;;5079992;28;20297;-79
2023/03/09 01:59:35;;;;;;;25.33;23.50;;;;;;;;;;5079973;28;20364;-80
2023/03/09 02:02:02;;;;;;;27.73;25.48;;;;;;;;;;5079617;28;20223;-80
2023/03/09 02:04:33;;;;;;;24.75;22.80;;;;;;;;;;5080358;28;20540;-80
2023/03/09 02:07:01;;;;;;;26.77;24.58;;;;;;;;;;5079254;28;20777;-79
2023/03/09 02:09:31;;;;;;;24.63;22.88;;;;;;;;;;5080305;28;20290;-80
2023/03/09 02:12:00;;;;;;;25.73;23.88;;;;;;;;;;5079757;28;20244;-80
2023/03/09 02:14:27;;;;;;;25.95;23.95;;;;;;;;;;5080063;28;20258;-79
2023/03/09 02:16:54;;;;;;;24.88;23.08;;;;;;;;;;5079616;28;20277;-79
2023/03/09 02:19:26;;;;;;;26.10;24.20;;;;;;;;;;5079113;28;20260;-79
2023/03/09 02:21:56;;;;;;;25.77;23.90;;;;;;;;;;5079147;28;20737;-80
2023/03/09 02:24:27;;;;;;;27.25;25.10;;;;;;;;;;5079043;28;20200;-80
2023/03/09 02:26:55;;;;;;;26.80;24.95;;;;;;;;;;5079727;28;20223;-79
2023/03/09 02:29:24;;;;;;;29.00;26.70;;;;;;;;;;5080083;28;20200;-79
2023/03/09 02:31:51;;;;;;;29.17;26.95;;;;;;;;;;5079355;28;20602;-79
2023/03/09 02:34:18;;;;;;;28.88;26.58;;;;;;;;;;5079620;28;20254;-79
2023/03/09 02:36:45;;;;;;;30.90;28.38;;;;;;;;;;5079051;28;20223;-79
2023/03/09 02:39:16;;;;;;;30.90;28.70;;;;;;;;;;5079726;28;20213;-79
2023/03/09 02:41:43;;;;;;;32.38;29.63;;;;;;;;;;5079210;28;20737;-80
2023/03/09 02:44:10;;;;;;;31.73;29.13;;;;;;;;;;5079816;28;20280;-79
2023/03/09 02:46:38;;;;;;;29.45;27.00;;;;;;;;;;5079584;28;20227;-80
2023/03/09 02:49:05;;;;;;;30.90;28.38;;;;;;;;;;5080134;28;20199;-79
2023/03/09 02:51:32;;;;;;;32.55;29.88;;;;;;;;;;5078880;28;20538;-80
2023/03/09 02:53:59;;;;;;;31.77;29.17;;;;;;;;;;5078762;28;20203;-80
2023/03/09 02:56:26;;;;;;;32.20;29.80;;;;;;;;;;5079697;28;20288;-79
2023/03/09 02:58:53;;;;;;;32.30;29.48;;;;;;;;;;5080011;28;20223;-79
2023/03/09 03:01:20;;;;;;;31.90;29.20;;;;;;;;;;5079789;28;20223;-79
2023/03/09 03:03:49;;;;;;;31.13;28.63;;;;;;;;;;5079883;28;20544;-79
2023/03/09 03:06:16;;;;;;;30.65;28.10;;;;;;;;;;5078874;28;20221;-80
2023/03/09 03:08:42;;;;;;;30.60;28.10;;;;;;;;;;5079231;28;20208;-79
2023/03/09 03:11:09;;;;;;;30.58;28.05;;;;;;;;;;5078596;28;20269;-79
2023/03/09 03:13:36;;;;;;;32.22;29.48;;;;;;;;;;5078997;28;20207;-80
2023/03/09 03:16:04;;;;;;;33.92;31.05;;;;;;;;;;5079149;28;20219;-80
2023/03/09 03:18:32;;;;;;;31.30;28.73;;;;;;;;;;5079033;28;20195;-79
2023/03/09 03:21:00;;;;;;;30.88;28.48;;;;;;;;;;5078838;28;20220;-79
2023/03/09 03:23:27;;;;;;;31.20;28.75;;;;;;;;;;5078850;28;20211;-80
2023/03/09 03:25:54;;;;;;;31.45;28.90;;;;;;;;;;5077715;28;20272;-80
2023/03/09 03:28:21;;;;;;;31.10;28.60;;;;;;;;;;5078258;28;20210;-80
2023/03/09 03:30:51;;;;;;;29.45;27.10;;;;;;;;;;5078687;28;20211;-79
2023/03/09 03:33:18;;;;;;;30.92;28.27;;;;;;;;;;5078561;28;20187;-80
2023/03/09 03:35:45;;;;;;;30.52;28.10;;;;;;;;;;5078336;28;20630;-80
2023/03/09 03:38:13;;;;;;;31.48;29.08;;;;;;;;;;5079216;28;20194;-80
2023/03/09 03:40:40;;;;;;;29.88;27.48;;;;;;;;;;5078558;28;20232;-79
2023/03/09 03:43:08;;;;;;;30.38;28.10;;;;;;;;;;5078314;28;20203;-80
2023/03/09 03:45:35;;;;;;;31.13;28.52;;;;;;;;;;5077896;28;20219;-80
2023/03/09 03:48:02;;;;;;;31.23;28.73;;;;;;;;;;5079305;28;20236;-79
2023/03/09 03:50:29;;;;;;;28.50;26.30;;;;;;;;;;5079175;28;20221;-79
2023/03/09 03:52:56;;;;;;;31.65;28.95;;;;;;;;;;5078281;28;20209;-80
2023/03/09 03:55:24;;;;;;;29.05;26.65;;;;;;;;;;5077882;28;20317;-79
2023/03/09 03:57:51;;;;;;;27.58;25.63;;;;;;;;;;5075427;28;20606;-80
2023/03/09 04:00:19;;;;;;;27.33;25.40;;;;;;;;;;5077946;28;20277;-79
2023/03/09 04:02:46;;;;;;;26.67;24.77;;;;;;;;;;5077231;28;20288;-79
2023/03/09 04:05:13;;;;;;;29.05;26.52;;;;;;;;;;5078181;28;20206;-80
2023/03/09 04:07:40;;;;;;;29.35;26.90;;;;;;;;;;5077496;28;20234;-79
2023/03/09 04:10:08;;;;;;;29.00;26.90;;;;;;;;;;5077695;28;20225;-79
2023/03/09 04:12:36;;;;;;;26.92;24.80;;;;;;;;;;5077163;28;20199;-80
2023/03/09 04:15:04;;;;;;;28.33;26.10;;;;;;;;;;5077813;28;20572;-80
2023/03/09 04:17:31;;;;;;;27.90;25.67;;;;;;;;;;5077831;28;20749;-79
2023/03/09 04:19:58;;;;;;;26.17;24.40;;;;;;;;;;5077955;28;20728;-79
2023/03/09 04:22:25;;;;;;;26.08;24.17;;;;;;;;;;5077250;28;20227;-80
2023/03/09 04:24:52;;;;;;;30.92;28.50;;;;;;;;;;5077327;28;20207;-80
2023/03/09 04:27:19;;;;;;;28.88;26.60;;;;;;;;;;5077853;28;20276;-80
2023/03/09 04:29:47;;;;;;;29.50;27.15;;;;;;;;;;5077890;28;20214;-79
2023/03/09 04:32:14;;;;;;;29.52;27.23;;;;;;;;;;5077108;28;20196;-80
2023/03/09 04:34:41;;;;;;;30.33;27.95;;;;;;;;;;5078534;28;20207;-80
2023/03/09 04:37:08;;;;;;;28.30;26.13;;;;;;;;;;5076549;28;20227;-79
2023/03/09 04:39:35;;;;;;;29.55;27.05;;;;;;;;;;5077900;28;20211;-79
2023/03/09 04:42:02;;;;;;;27.67;25.55;;;;;;;;;;5077388;28;20223;-80
2023/03/09 04:44:29;;;;;;;28.58;26.38;;;;;;;;;;5078004;28;20237;-80
2023/03/09 04:46:58;;;;;;;28.83;26.35;;;;;;;;;;5077865;28;20256;-80
2023/03/09 04:49:25;;;;;;;28.35;26.23;;;;;;;;;;5077997;28;20203;-80
2023/03/09 04:51:52;;;;;;;28.48;26.27;;;;;;;;;;5076014;28;20229;-80
2023/03/09 04:54:19;;;;;;;29.95;27.40;;;;;;;;;;5077817;28;20199;-80
2023/03/09 04:56:46;;;;;;;30.00;27.45;;;;;;;;;;5077650;28;20250;-79
2023/03/09 04:59:13;;;;;;;30.25;27.58;;;;;;;;;;5077901;28;20519;-79
2023/03/09 05:01:40;;;;;;;30.38;28.05;;;;;;;;;;5077135;28;20268;-80
2023/03/09 05:04:10;;;;;;;31.13;28.33;;;;;;;;;;5077515;28;20200;-79
2023/03/09 05:06:37;;;;;;;30.15;27.83;;;;;;;;;;5077669;28;20622;-79
2023/03/09 05:09:05;;;;;;;31.90;29.17;;;;;;;;;;5077445;28;20221;-79
2023/03/09 05:11:32;;;;;;;30.50;28.10;;;;;;;;;;5077176;28;20249;-80
2023/03/09 05:13:59;;;;;;;30.15;27.65;;;;;;;;;;5077356;28;20207;-79
2023/03/09 05:16:26;;;;;;;29.73;27.23;;;;;;;;;;5083017;28;20610;-80
2023/03/09 05:18:53;;;;;;;30.85;28.25;;;;;;;;;;5091544;28;20229;-80
2023/03/09 05:21:21;;;;;;;31.52;28.83;;;;;;;;;;5092653;28;20211;-80
2023/03/09 05:23:48;;;;;;;32.03;29.13;;;;;;;;;;5084087;28;20744;-80
2023/03/09 05:26:15;;;;;;;31.83;29.27;;;;;;;;;;5082105;28;20616;-80
2023/03/09 05:28:42;;;;;;;29.17;26.98;;;;;;;;;;5082641;28;20229;-80
2023/03/09 05:31:10;;;;;;;30.45;28.00;;;;;;;;;;5081781;28;20687;-79
2023/03/09 05:33:37;;;;;;;32.17;29.40;;;;;;;;;;5081393;28;20588;-80
2023/03/09 05:36:04;;;;;;;29.33;27.10;;;;;;;;;;5081386;28;20219;-80
2023/03/09 05:38:32;;;;;;;30.75;28.35;;;;;;;;;;5081733;28;20256;-79
2023/03/09 05:40:59;;;;;;;28.88;26.52;;;;;;;;;;5081269;28;20199;-79
2023/03/09 05:43:27;;;;;;;28.85;26.55;;;;;;;;;;5081361;28;20227;-79
2023/03/09 05:45:57;;;;;;;29.33;26.70;;;;;;;;;;5081028;28;20262;-80
2023/03/09 05:48:24;;;;;;;27.98;25.77;;;;;;;;;;5080626;28;20612;-80
2023/03/09 05:50:51;;;;;;;29.08;26.75;;;;;;;;;;5081409;28;20211;-79
2023/03/09 05:53:18;;;;;;;27.33;25.13;;;;;;;;;;5080614;28;20617;-80
2023/03/09 05:55:51;;;;;;;27.80;25.73;;;;;;;;;;5080581;28;20223;-80
2023/03/09 05:58:18;;;;;;;28.85;26.55;;;;;;;;;;5080680;28;20230;-80
2023/03/09 06:00:45;;;;;;;28.70;26.30;;;;;;;;;;5080680;28;20615;-79
2023/03/09 06:03:12;;;;;;;29.13;26.77;;;;;;;;;;5079864;28;20246;-80
2023/03/09 06:05:39;;;;;;;29.45;27.05;;;;;;;;;;5079752;28;20265;-79
2023/03/09 06:08:06;;;;;;;29.25;26.75;;;;;;;;;;5081175;28;20213;-80
2023/03/09 06:10:33;;;;;;;29.88;27.48;;;;;;;;;;5080428;28;20250;-80
2023/03/09 06:13:02;;;;;;;29.88;27.30;;;;;;;;;;5080500;28;20225;-80
2023/03/09 06:15:29;;;;;;;29.33;26.98;;;;;;;;;;5080227;28;20231;-80
2023/03/09 06:17:56;;;;;;;32.20;29.33;;;;;;;;;;5080796;28;20249;-80
2023/03/09 06:20:23;;;;;;;30.60;28.02;;;;;;;;;;5080431;28;20200;-80
2023/03/09 06:22:50;;;;;;;30.63;28.05;;;;;;;;;;5077833;28;20214;-76
2023/03/09 06:25:17;;;;;;;28.88;26.35;;;;;;;;;;5076146;28;20660;-75
2023/03/09 06:27:44;;;;;;;28.65;26.20;;;;;;;;;;5076591;28;20199;-75
2023/03/09 06:30:13;;;;;;;30.02;27.58;;;;;;;;;;5076892;28;20203;-75
2023/03/09 06:32:40;;;;;;;29.63;27.05;;;;;;;;;;5075451;28;20199;-75
2023/03/09 06:35:08;;;;;;;28.67;26.27;;;;;;;;;;5076271;28;20257;-75
2023/03/09 06:37:34;;;;;;;29.02;26.52;;;;;;;;;;5075806;28;20272;-75
2023/03/09 06:40:04;;;;;;;29.75;27.25;;;;;;;;;;5076265;28;20202;-76
2023/03/09 06:42:31;;;;;;;31.48;28.63;;;;;;;;;;5075703;28;20215;-75
2023/03/09 06:44:59;;;;;;;29.35;26.90;;;;;;;;;;5076273;28;20211;-75
2023/03/09 06:47:27;;;;;;;30.23;27.65;;;;;;;;;;5075987;28;20254;-75
2023/03/09 06:49:54;;;;;;;33.55;30.00;;;;;;;;;;5076212;28;20268;-75
2023/03/09 06:52:22;;;;;;;32.05;29.13;;;;;;;;;;5075636;28;20212;-75
2023/03/09 06:54:49;;;;;;;32.22;29.20;;;;;;;;;;5075349;28;20211;-75
2023/03/09 06:57:16;;;;;;;30.02;27.50;;;;;;;;;;5076069;28;20227;-75
2023/03/09 06:59:43;;;;;;;31.75;28.60;;;;;;;;;;5075845;28;20735;-75
2023/03/09 07:02:12;;;;;;;29.55;26.85;;;;;;;;;;5074680;28;20714;-75
2023/03/09 07:04:41;;;;;;;29.30;26.50;;;;;;;;;;5075154;28;20203;-75
2023/03/09 07:07:08;;;;;;;31.58;28.77;;;;;;;;;;5075700;28;20227;-75
2023/03/09 07:09:35;;;;;;;27.17;24.88;;;;;;;;;;5075913;28;20200;-75
2023/03/09 07:12:02;;;;;;;30.80;28.05;;;;;;;;;;5075241;28;20257;-75
2023/03/09 07:14:29;;;;;;;28.35;25.67;;;;;;;;;;5075502;28;20667;-75
2023/03/09 07:16:57;;;;;;;27.90;25.50;;;;;;;;;;5074709;28;20688;-75
2023/03/09 07:19:25;;;;;;;29.90;27.20;;;;;;;;;;5075530;28;20203;-75
2023/03/09 07:21:54;;;;;;;29.25;26.58;;;;;;;;;;5075006;28;20244;-76
2023/03/09 07:24:21;;;;;;;30.30;27.60;;;;;;;;;;5074976;28;20213;-75
2023/03/09 07:26:49;;;;;;;30.25;27.42;;;;;;;;;;5075344;28;20226;-77
2023/03/09 07:29:16;;;;;;;28.33;25.88;;;;;;;;;;5075476;28;20268;-75
2023/03/09 07:31:42;;;;;;;28.45;26.10;;;;;;;;;;5074034;28;20611;-76
2023/03/09 07:34:09;;;;;;;27.80;25.40;;;;;;;;;;5075695;28;20617;-75
2023/03/09 07:36:36;;;;;;;27.83;25.38;;;;;;;;;;5075146;28;20296;-75
2023/03/09 07:39:05;;;;;;;28.73;26.13;;;;;;;;;;5075322;28;20219;-75
2023/03/09 07:41:32;;;;;;;28.70;26.20;;;;;;;;;;5074348;28;20676;-76
2023/03/09 07:43:59;;;;;;;28.27;25.73;;;;;;;;;;5073588;28;20776;-76
2023/03/09 07:46:26;;;;;;;28.42;26.13;;;;;;;;;;5074605;28;20613;-76
2023/03/09 07:48:53;;;;;;;27.55;25.08;;;;;;;;;;5074545;28;20663;-76
2023/03/09 07:51:21;;;;;;;27.85;25.27;;;;;;;;;;5074523;28;20211;-76
2023/03/09 07:53:49;;;;;;;28.58;26.10;;;;;;;;;;5071442;28;20243;-76
2023/03/09 07:56:17;;;;;;;28.23;25.73;;;;;;;;;;5074594;28;20219;-76
2023/03/09 07:58:45;;;;;;;27.77;25.52;;;;;;;;;;5074020;28;20268;-76
2023/03/09 08:01:16;;;;;;;31.35;28.55;;;;;;;;;;5074209;28;20648;-75
2023/03/09 08:03:43;;;;;;;28.40;25.77;;;;;;;;;;5073980;28;20223;-76
2023/03/09 08:06:10;;;;;;;27.75;25.35;;;;;;;;;;5074431;28;20227;-76
2023/03/09 08:08:38;;;;;;;28.45;25.85;;;;;;;;;;5074733;28;20204;-76
2023/03/09 08:11:05;;;;;;;29.63;26.77;;;;;;;;;;5074490;28;20249;-75
2023/03/09 08:13:34;;;;;;;30.08;27.38;;;;;;;;;;5073277;28;20195;-75
2023/03/09 08:16:02;;;;;;;28.30;25.60;;;;;;;;;;5074501;28;20227;-75
2023/03/09 08:18:29;;;;;;;27.67;25.23;;;;;;;;;;5073980;28;20260;-75
2023/03/09 08:20:56;;;;;;;28.45;26.05;;;;;;;;;;5073966;28;20207;-75
2023/03/09 08:23:23;;;;;;;28.73;26.27;;;;;;;;;;5073527;28;20258;-76
2023/03/09 08:25:54;;;;;;;29.92;27.35;;;;;;;;;;5073169;28;20409;-75
2023/03/09 08:28:21;;;;;;;29.23;26.60;;;;;;;;;;5074772;28;20708;-75
2023/03/09 08:30:51;;;;;;;28.75;26.20;;;;;;;;;;5074082;28;20210;-76
2023/03/09 08:33:18;;;;;;;28.23;25.83;;;;;;;;;;5073504;28;20724;-76
2023/03/09 08:35:46;;;;;;;28.92;26.33;;;;;;;;;;5074437;28;20280;-78
2023/03/09 08:38:13;;;;;;;31.58;28.70;;;;;;;;;;5074924;28;20243;-78
2023/03/09 08:40:41;;;;;;;29.98;27.27;;;;;;;;;;5074170;28;20256;-78
2023/03/09 08:43:08;;;;;;;29.98;27.30;;;;;;;;;;5073647;28;20358;-78
2023/03/09 08:45:34;;;;;;;30.30;27.55;;;;;;;;;;5074600;28;20227;-82
2023/03/09 08:48:03;;;;;;;31.88;28.85;;;;;;;;;;5075617;28;20187;-83
2023/03/09 08:50:30;;;;;;;28.80;26.50;;;;;;;;;;5077405;28;20248;-76
2023/03/09 08:52:57;;;;;;;31.67;28.83;;;;;;;;;;5074920;28;20265;-83
2023/03/09 08:55:24;;;;;;;29.08;26.52;;;;;;;;;;5078986;28;20276;-84
2023/03/09 08:57:51;;;;;;;28.95;26.73;;;;;;;;;;5074482;28;20261;-76
2023/03/09 09:00:19;;;;;;;28.67;26.13;;;;;;;;;;5073927;28;20203;-76
2023/03/09 09:02:46;;;;;;;29.35;26.55;;;;;;;;;;5073239;28;20216;-77
2023/03/09 09:05:14;;;;;;;28.60;25.98;;;;;;;;;;5073661;28;20207;-76
2023/03/09 09:07:41;;;;;;;29.55;26.90;;;;;;;;;;5073768;28;20207;-77
2023/03/09 09:10:08;;;;;;;30.10;27.33;;;;;;;;;;5073794;28;20199;-76
2023/03/09 09:12:37;;;;;;;30.85;27.65;;;;;;;;;;5073174;28;20203;-77
2023/03/09 09:15:04;;;;;;;30.00;27.10;;;;;;;;;;5073049;28;20203;-77
2023/03/09 09:17:31;;;;;;;30.50;27.85;;;;;;;;;;5073805;28;20298;-77
2023/03/09 09:19:58;;;;;;;29.80;26.75;;;;;;;;;;5073805;28;20207;-76
2023/03/09 09:22:27;;;;;;;28.25;25.42;;;;;;;;;;5073281;28;20255;-76
2023/03/09 09:24:54;;;;;;;29.95;27.13;;;;;;;;;;5077605;28;20211;-83
2023/03/09 09:27:21;;;;;;;28.55;26.25;;;;;;;;;;5078712;28;20219;-79
2023/03/09 09:29:48;;;;;;;29.00;26.40;;;;;;;;;;5079547;28;20570;-80
2023/03/09 09:32:15;;;;;;;28.75;26.30;;;;;;;;;;5078567;28;20207;-81
2023/03/09 09:34:42;;;;;;;30.33;27.20;;;;;;;;;;5079102;28;20226;-81
2023/03/09 09:37:10;;;;;;;33.50;28.98;;;;;;;;;;5079605;28;20228;-80
2023/03/09 09:39:39;;;;;;;29.20;26.30;;;;;;;;;;5078358;28;20637;-84
2023/03/09 09:42:11;;;;;;;29.80;26.88;;;;;;;;;;5084213;28;20207;-79
2023/03/09 09:44:40;;;;;;;30.27;27.30;;;;;;;;;;5082777;28;20265;-79
2023/03/09 09:47:10;;;;;;;29.58;26.58;;;;;;;;;;5081203;28;20223;-79
2023/03/09 09:49:41;;;;;;;27.95;25.15;;;;;;;;;;5073610;28;20282;-77
2023/03/09 09:52:18;;;;;;;29.80;26.77;;;;;;;;;;5073496;28;20187;-79
2023/03/09 09:54:52;;;;;;;31.55;28.30;;;;;;;;;;5073886;28;20183;-79
2023/03/09 09:57:20;;;;;;;29.15;26.45;;;;;;;;;;5073790;28;20219;-78
2023/03/09 09:59:52;;;;;;;31.67;28.52;;;;;;;;;;5076897;28;20733;-80
2023/03/09 10:02:23;;;;;;;32.72;27.73;;;;;;;;;;5076351;28;20191;-81
2023/03/09 10:04:55;;;;;;;32.65;29.65;;;;;;;;;;5077906;28;20216;-81
2023/03/09 10:07:23;;;;;;;31.15;28.35;;;;;;;;;;5076184;28;20297;-77
2023/03/09 10:09:53;;;;;;;31.15;28.08;;;;;;;;;;5076950;28;20207;-77
2023/03/09 10:12:20;;;;;;;31.98;28.17;;;;;;;;;;5076067;28;20255;-77
2023/03/09 10:14:51;;;;;;;33.40;29.98;;;;;;;;;;5076894;28;20249;-77
2023/03/09 10:17:21;;;;;;;32.70;29.30;;;;;;;;;;5076029;28;20269;-78
2023/03/09 10:19:49;;;;;;;32.15;29.05;;;;;;;;;;5077110;28;20705;-77
2023/03/09 10:22:19;;;;;;;28.38;25.60;;;;;;;;;;5076368;28;20250;-77
2023/03/09 10:24:47;;;;;;;31.67;28.42;;;;;;;;;;5076234;28;20228;-78
2023/03/09 10:27:20;;;;;;;30.08;26.90;;;;;;;;;;5076152;28;20224;-78
2023/03/09 10:29:50;;;;;;;32.55;29.05;;;;;;;;;;5075446;28;20187;-76
2023/03/09 10:32:20;;;;;;;30.98;27.85;;;;;;;;;;5075310;28;20191;-76
2023/03/09 10:34:53;;;;;;;33.63;30.15;;;;;;;;;;5075780;28;20202;-78
2023/03/09 10:37:24;;;;;;;31.40;28.40;;;;;;;;;;5077066;28;20238;-78
2023/03/09 10:39:51;;;;;;;31.83;28.60;;;;;;;;;;5076908;28;20188;-79
2023/03/09 10:42:21;;;;;;;29.35;26.65;;;;;;;;;;5079824;28;20203;-87
2023/03/09 10:44:55;;;;;;;32.55;28.80;;;;;;;;;;5076942;28;20220;-78
2023/03/09 10:47:22;;;;;;;29.55;26.80;;;;;;;;;;5076174;28;20278;-79
2023/03/09 10:50:04;;;;;;;30.25;27.42;;;;;;;;;;5076547;28;20225;-79
2023/03/09 10:52:32;;;;;;;32.05;29.00;;;;;;;;;;5080069;28;20226;-81
2023/03/09 10:54:59;;;;;;;33.05;29.88;;;;;;;;;;5080365;28;20199;-80
2023/03/09 10:57:30;;;;;;;32.88;29.60;;;;;;;;;;5078111;28;20229;-79
2023/03/09 10:59:58;;;;;;;32.30;28.75;;;;;;;;;;5078975;28;20185;-79
2023/03/09 11:02:30;;;;;;;32.42;29.35;;;;;;;;;;5077234;28;20199;-79
2023/03/09 11:04:57;;;;;;;33.00;29.80;;;;;;;;;;5078518;28;20223;-79
2023/03/09 11:07:26;;;;;;;32.03;28.83;;;;;;;;;;5078602;28;20203;-79
2023/03/09 11:09:53;;;;;;;32.42;29.05;;;;;;;;;;5077946;28;20568;-79
2023/03/09 11:12:23;;;;;;;35.78;32.17;;;;;;;;;;5077593;28;20645;-80
2023/03/09 11:14:52;;;;;;;34.60;31.20;;;;;;;;;;5078656;28;20335;-79
2023/03/09 11:17:26;;;;;;;33.95;30.42;;;;;;;;;;5077525;28;20222;-80
2023/03/09 11:20:14;;;;;;;33.65;30.20;;;;;;;;;;5077597;28;20594;-79
2023/03/09 11:22:44;;;;;;;34.03;30.65;;;;;;;;;;5077695;28;20183;-80
2023/03/09 11:25:14;;;;;;;34.55;30.90;;;;;;;;;;5077628;28;20272;-80
2023/03/09 11:27:43;;;;;;;31.55;28.80;;;;;;;;;;5078442;28;20243;-79
2023/03/09 11:30:14;;;;;;;34.38;30.95;;;;;;;;;;5078242;28;20207;-80
2023/03/09 11:32:41;;;;;;;32.85;29.73;;;;;;;;;;5077664;28;20183;-76
2023/03/09 11:35:13;;;;;;;31.95;28.77;;;;;;;;;;5075308;28;20264;-75
2023/03/09 11:37:43;;;;;;;33.80;30.80;;;;;;;;;;5075762;28;20213;-75
2023/03/09 11:40:13;;;;;;;32.33;29.23;;;;;;;;;;5075152;28;20428;-76
2023/03/09 11:42:42;;;;;;;31.63;28.70;;;;;;;;;;5074786;28;20254;-76
2023/03/09 11:45:14;;;;;;;31.27;28.38;;;;;;;;;;5075058;28;20219;-76
2023/03/09 11:47:44;;;;;;;32.35;29.30;;;;;;;;;;5075272;28;20243;-76
2023/03/09 11:50:15;;;;;;;32.00;28.92;;;;;;;;;;5075218;28;20572;-76
2023/03/09 11:52:46;;;;;;;28.58;26.15;;;;;;;;;;5074555;28;20219;-75
2023/03/09 11:55:14;;;;;;;30.73;27.88;;;;;;;;;;5074897;28;20184;-76
2023/03/09 11:57:44;;;;;;;31.00;28.20;;;;;;;;;;5074987;28;20587;-74
2023/03/09 12:00:15;;;;;;;29.33;26.65;;;;;;;;;;5065010;28;20449;-73
2023/03/09 12:02:48;;;;;;;29.00;25.90;;;;;;;;;;5062179;28;20237;-74
2023/03/09 12:05:16;;;;;;;29.08;26.58;;;;;;;;;;5062836;28;20212;-74
2023/03/09 12:07:47;;;;;;;30.60;27.83;;;;;;;;;;5066555;28;20237;-73
2023/03/09 12:10:19;;;;;;;29.30;26.80;;;;;;;;;;5063226;28;20650;-74
2023/03/09 12:12:48;;;;;;;29.08;26.55;;;;;;;;;;5068418;28;20190;-74
2023/03/09 12:15:18;;;;;;;29.92;27.33;;;;;;;;;;5068656;28;20200;-74
2023/03/09 12:17:48;;;;;;;28.30;25.65;;;;;;;;;;5065807;28;20578;-74
2023/03/09 12:20:25;;;;;;;31.63;28.77;;;;;;;;;;5074516;28;20229;-78
2023/03/09 12:22:52;;;;;;;29.58;26.88;;;;;;;;;;5074068;28;20191;-74
2023/03/09 12:25:22;;;;;;;29.60;26.83;;;;;;;;;;5069494;28;20762;-75
2023/03/09 12:27:50;;;;;;;30.53;27.87;;;;;;;;;;5059846;28;20916;-75
2023/03/09 12:30:24;;;;;;;29.15;26.67;;;;;;;;;;5053834;28;20432;-74
2023/03/09 12:32:56;;;;;;;28.58;26.17;;;;;;;;;;5053788;28;20243;-75
2023/03/09 12:35:41;;;;;;;30.60;27.50;;;;;;;;;;5053573;28;20343;-74
2023/03/09 12:38:16;;;;;;;26.90;24.90;;;;;;;;;;5054367;28;20193;-74
2023/03/09 12:40:43;;;;;;;30.63;27.70;;;;;;;;;;5053584;28;20446;-74
2023/03/09 12:43:29;;;;;;;28.40;25.80;;;;;;;;;;5052535;28;20255;-74
2023/03/09 12:45:56;;;;;;;25.75;23.63;;;;;;;;;;5053583;28;20826;-74
2023/03/09 12:48:26;;;;;;;30.43;27.53;;;;;;;;;;5052294;28;20583;-75
2023/03/09 12:50:56;;;;;;;31.23;28.20;;;;;;;;;;5053417;28;20828;-75
2023/03/09 12:53:24;;;;;;;30.50;27.90;;;;;;;;;;5053458;28;20212;-74
2023/03/09 12:55:53;;;;;;;30.30;27.70;;;;;;;;;;5053874;28;20226;-74
2023/03/09 12:58:35;;;;;;;29.40;26.92;;;;;;;;;;5053976;28;20212;-74
2023/03/09 13:01:03;;;;;;;30.05;27.30;;;;;;;;;;5054159;28;20607;-74
2023/03/09 13:03:36;;;;;;;31.67;28.60;;;;;;;;;;5053032;28;20252;-74
2023/03/09 13:06:04;;;;;;;30.75;28.15;;;;;;;;;;5053771;28;20686;-74
2023/03/09 13:08:33;;;;;;;30.73;28.08;;;;;;;;;;5053846;28;20184;-74
2023/03/09 13:11:19;;;;;;;31.08;28.38;;;;;;;;;;5053819;28;20209;-74
2023/03/09 13:13:46;;;;;;;32.17;29.07;;;;;;;;;;5053616;28;20212;-75
2023/03/09 13:16:32;;;;;;;30.38;27.52;;;;;;;;;;5054427;28;20826;-74
2023/03/09 13:19:17;;;;;;;29.67;27.08;;;;;;;;;;5055192;28;20249;-74
2023/03/09 13:21:47;;;;;;;29.08;26.42;;;;;;;;;;5061647;28;20200;-74
2023/03/09 13:24:16;;;;;;;30.80;28.10;;;;;;;;;;5073435;28;20623;-74
2023/03/09 13:26:44;;;;;;;30.88;28.20;;;;;;;;;;5073520;28;20233;-74
2023/03/09 13:29:12;;;;;;;30.90;28.23;;;;;;;;;;5073937;28;20258;-75
2023/03/09 13:31:39;;;;;;;31.85;29.05;;;;;;;;;;5072189;28;20208;-75
2023/03/09 13:34:06;;;;;;;31.40;28.30;;;;;;;;;;5073591;28;20256;-75
2023/03/09 13:36:33;;;;;;;31.15;28.45;;;;;;;;;;5073633;28;20230;-74
2023/03/09 13:39:05;;;;;;;34.03;30.63;;;;;;;;;;5073712;28;20208;-75
2023/03/09 13:41:32;;;;;;;30.40;27.70;;;;;;;;;;5073248;28;20467;-74
2023/03/09 13:44:00;;;;;;;31.77;28.57;;;;;;;;;;5077177;28;20428;-75
2023/03/09 13:46:32;;;;;;;29.67;26.80;;;;;;;;;;5077219;28;20509;-74
2023/03/09 13:49:06;;;;;;;30.60;27.90;;;;;;;;;;5077612;28;20936;-75
2023/03/09 13:51:38;;;;;;;31.87;28.47;;;;;;;;;;5075877;28;20215;-75
2023/03/09 13:54:07;;;;;;;28.75;26.35;;;;;;;;;;5077854;28;20487;-74
2023/03/09 13:56:34;;;;;;;28.90;26.40;;;;;;;;;;5076958;28;20749;-74
2023/03/09 13:59:04;;;;;;;29.02;26.42;;;;;;;;;;5077039;28;20420;-75
2023/03/09 14:01:31;;;;;;;28.90;26.40;;;;;;;;;;5075945;28;20212;-75
2023/03/09 14:03:59;;;;;;;30.80;27.83;;;;;;;;;;5076686;28;20668;-74
2023/03/09 14:06:30;;;;;;;32.25;29.17;;;;;;;;;;5076645;28;20969;-76
2023/03/09 14:09:06;;;;;;;28.83;26.08;;;;;;;;;;5077435;28;20570;-74
2023/03/09 14:11:34;;;;;;;29.25;26.55;;;;;;;;;;5076285;28;20192;-75
2023/03/09 14:14:04;;;;;;;30.25;27.40;;;;;;;;;;5077367;28;20230;-74
2023/03/09 14:16:32;;;;;;;30.83;27.85;;;;;;;;;;5076852;28;20262;-75
2023/03/09 14:19:00;;;;;;;30.52;27.73;;;;;;;;;;5076904;28;20205;-74
2023/03/09 14:21:28;;;;;;;31.77;28.83;;;;;;;;;;5075270;28;20655;-75
2023/03/09 14:23:57;;;;;;;31.20;28.23;;;;;;;;;;5077103;28;20420;-74